Time;durP1;ratioP1;P1;durP2;ratioP2;P2;SDS_P1;SDS_P2;PMS_P1;PMS_P2;Temp;Humidity;BMP_temperature;BMP_pressure;BME280_temperature;BME280_humidity;BME280_pressure;Samples;Min_cycle;Max_cycle;Signal;HPM_P1;HPM_P2
2021/10/05 00:00:23;;;;;;;12.07;10.60;;;;;;;9.02;100.00;92795.47;2105900;28;20396;-83
2021/10/05 00:01:26;;;;;;;14.82;10.02;;;;;;;9.00;100.00;92805.78;2098840;28;20032;-84
2021/10/05 00:02:27;;;;;;;12.25;10.93;;;;;;;8.99;100.00;92804.31;2107815;27;20514;-86
2021/10/05 00:03:30;;;;;;;14.48;10.25;;;;;;;8.99;100.00;92794.38;2121934;27;20023;-84
2021/10/05 00:04:31;;;;;;;14.52;10.38;;;;;;;8.99;100.00;92801.63;2115669;28;20019;-82
2021/10/05 00:05:33;;;;;;;12.27;10.88;;;;;;;8.98;100.00;92789.47;2107112;28;20728;-83
2021/10/05 00:06:34;;;;;;;12.10;10.25;;;;;;;8.96;100.00;92787.22;2115843;27;20020;-82
2021/10/05 00:07:35;;;;;;;11.82;10.20;;;;;;;8.94;100.00;92781.53;2115300;28;20556;-83
2021/10/05 00:08:36;;;;;;;11.98;10.27;;;;;;;8.92;100.00;92783.88;2107139;28;20028;-83
2021/10/05 00:09:37;;;;;;;12.32;10.63;;;;;;;8.97;100.00;92780.72;2115548;28;20495;-82
2021/10/05 00:10:39;;;;;;;10.68;9.57;;;;;;;8.92;100.00;92785.81;2107122;28;20031;-84
2021/10/05 00:11:40;;;;;;;11.52;9.88;;;;;;;8.91;100.00;92782.41;2107447;28;20069;-83
2021/10/05 00:12:41;;;;;;;10.38;9.10;;;;;;;8.92;100.00;92781.22;2098376;28;20104;-83
2021/10/05 00:13:42;;;;;;;11.38;8.60;;;;;;;8.96;100.00;92784.56;2089988;28;20025;-83
2021/10/05 00:14:43;;;;;;;12.02;9.68;;;;;;;8.98;100.00;92778.81;2090337;28;20480;-86
2021/10/05 00:15:44;;;;;;;12.07;10.10;;;;;;;8.95;100.00;92777.72;2098815;28;20099;-83
2021/10/05 00:16:46;;;;;;;11.40;9.40;;;;;;;8.91;100.00;92776.28;2098638;28;20025;-82
2021/10/05 00:17:47;;;;;;;9.65;8.65;;;;;;;8.97;100.00;92775.41;2098870;28;20020;-85
2021/10/05 00:18:49;;;;;;;12.05;10.15;;;;;;;8.92;100.00;92775.91;2098613;28;20017;-81
2021/10/05 00:19:50;;;;;;;10.02;9.02;;;;;;;8.97;100.00;92772.72;2107232;28;20047;-84
2021/10/05 00:20:51;;;;;;;10.48;9.13;;;;;;;8.94;100.00;92781.53;2098810;28;20021;-84
2021/10/05 00:21:52;;;;;;;11.75;9.45;;;;;;;9.04;100.00;92777.94;2107074;28;20027;-83
2021/10/05 00:22:53;;;;;;;12.23;9.60;;;;;;;8.99;100.00;92773.06;2106962;28;20550;-82
2021/10/05 00:23:54;;;;;;;11.02;9.20;;;;;;;9.10;100.00;92777.44;2098600;28;20024;-83
2021/10/05 00:24:55;;;;;;;9.13;8.23;;;;;;;9.08;100.00;92778.56;2106982;28;20086;-83
2021/10/05 00:25:56;;;;;;;10.40;8.48;;;;;;;9.04;100.00;92777.16;2112609;28;20048;-83
2021/10/05 00:26:57;;;;;;;13.48;8.95;;;;;;;9.02;100.00;92774.16;2106990;28;20028;-84
2021/10/05 00:27:58;;;;;;;12.73;8.95;;;;;;;9.04;100.00;92779.81;2098386;28;20028;-82
2021/10/05 00:28:58;;;;;;;15.45;7.95;;;;;;;9.11;100.00;92769.00;2106937;28;20031;-82
2021/10/05 00:30:00;;;;;;;9.77;8.38;;;;;;;9.02;100.00;92764.25;2115360;28;20519;-83
2021/10/05 00:31:01;;;;;;;10.43;8.27;;;;;;;9.02;100.00;92758.16;2106901;28;20043;-81
2021/10/05 00:32:04;;;;;;;9.02;8.13;;;;;;;9.00;100.00;92758.59;2106947;28;20028;-83
2021/10/05 00:33:04;;;;;;;10.60;8.05;;;;;;;9.05;100.00;92752.75;2107007;28;20024;-83
2021/10/05 00:34:05;;;;;;;11.18;7.85;;;;;;;9.17;100.00;92751.34;2115396;28;20503;-84
2021/10/05 00:35:07;;;;;;;10.00;8.63;;;;;;;9.12;100.00;92756.44;2115270;28;20032;-85
2021/10/05 00:36:08;;;;;;;9.75;8.10;;;;;;;9.16;100.00;92765.84;2106919;28;20016;-83
2021/10/05 00:37:09;;;;;;;8.73;7.82;;;;;;;9.18;100.00;92752.88;2106944;28;20016;-84
2021/10/05 00:38:10;;;;;;;8.98;8.07;;;;;;;9.13;100.00;92760.59;2110349;28;20884;-83
2021/10/05 00:39:11;;;;;;;11.52;7.45;;;;;;;9.17;100.00;92756.69;2106892;28;20024;-85
2021/10/05 00:40:12;;;;;;;8.95;8.05;;;;;;;9.15;100.00;92756.34;2115465;27;20408;-84
2021/10/05 00:41:13;;;;;;;9.52;8.52;;;;;;;9.18;100.00;92754.78;2106897;28;20036;-84
2021/10/05 00:42:14;;;;;;;8.60;7.70;;;;;;;9.21;100.00;92751.25;2106733;28;20032;-84
2021/10/05 00:43:15;;;;;;;8.95;7.88;;;;;;;9.21;100.00;92751.25;2098405;28;20058;-83
2021/10/05 00:44:26;;;;;;;16.10;8.90;;;;;;;9.25;100.00;92754.59;2106888;28;20599;-84
2021/10/05 00:45:27;;;;;;;8.90;7.70;;;;;;;9.30;100.00;92760.19;2106755;28;20028;-84
2021/10/05 00:46:29;;;;;;;10.80;9.10;;;;;;;9.31;100.00;92761.72;2106927;28;20534;-83
2021/10/05 00:47:29;;;;;;;10.88;8.23;;;;;;;9.23;100.00;92759.63;2114321;28;20020;-82
2021/10/05 00:48:30;;;;;;;10.52;9.43;;;;;;;9.29;100.00;92756.03;2106676;28;20512;-84
2021/10/05 00:49:32;;;;;;;10.35;8.48;;;;;;;9.30;100.00;92764.78;2098482;28;20036;-83
2021/10/05 00:50:34;;;;;;;10.32;9.27;;;;;;;9.32;100.00;92765.88;2090384;28;20025;-83
2021/10/05 00:51:35;;;;;;;9.23;8.23;;;;;;;9.25;100.00;92759.94;2090367;28;20025;-83
2021/10/05 00:52:36;;;;;;;11.45;9.13;;;;;;;9.31;100.00;92763.63;2098328;28;20385;-83
2021/10/05 00:53:38;;;;;;;10.10;9.15;;;;;;;9.27;100.00;92766.38;2106843;28;20099;-83
2021/10/05 00:54:41;;;;;;;9.30;8.40;;;;;;;9.32;100.00;92762.47;2106676;28;20020;-83
2021/10/05 00:55:42;;;;;;;10.23;8.63;;;;;;;9.20;100.00;92758.53;2090780;28;20021;-85
2021/10/05 00:56:43;;;;;;;9.80;8.68;;;;;;;9.17;100.00;92762.00;2106971;28;20059;-83
2021/10/05 00:57:44;;;;;;;9.10;8.20;;;;;;;9.14;100.00;92778.84;2106561;28;20028;-83
2021/10/05 00:58:45;;;;;;;10.43;8.40;;;;;;;9.14;100.00;92768.19;2106699;28;20403;-84
2021/10/05 00:59:46;;;;;;;9.55;8.55;;;;;;;9.14;100.00;92775.44;2106741;28;20031;-85
2021/10/05 01:00:47;;;;;;;10.43;8.52;;;;;;;9.15;100.00;92774.28;2106541;28;20686;-84
2021/10/05 01:01:48;;;;;;;8.55;7.70;;;;;;;9.23;100.00;92772.94;2114961;28;20107;-84
2021/10/05 01:02:49;;;;;;;8.65;7.78;;;;;;;9.36;100.00;92779.13;2106554;28;20020;-81
2021/10/05 01:03:50;;;;;;;9.32;8.27;;;;;;;9.25;100.00;92779.34;2098379;28;20116;-84
2021/10/05 01:04:53;;;;;;;8.57;7.75;;;;;;;9.29;100.00;92776.63;2090748;28;20024;-84
2021/10/05 01:05:57;;;;;;;9.40;7.97;;;;;;;9.22;100.00;92782.09;2110161;27;20026;-80
2021/10/05 01:07:02;;;;;;;8.98;8.07;;;;;;;9.15;100.00;92775.00;2127952;27;20023;-83
2021/10/05 01:08:04;;;;;;;9.45;8.35;;;;;;;9.20;100.00;92779.09;2116031;28;20195;-85
2021/10/05 01:09:04;;;;;;;12.02;8.52;;;;;;;9.16;100.00;92770.44;2106621;28;20040;-84
2021/10/05 01:10:06;;;;;;;9.30;8.40;;;;;;;9.10;100.00;92774.75;2106708;28;20036;-83
2021/10/05 01:11:07;;;;;;;10.80;9.13;;;;;;;9.04;100.00;92774.47;2106751;28;20074;-83
2021/10/05 01:12:08;;;;;;;9.25;8.25;;;;;;;9.07;100.00;92763.00;2098393;28;20028;-86
2021/10/05 01:13:09;;;;;;;9.90;8.98;;;;;;;9.02;100.00;92766.91;2098267;28;20473;-84
2021/10/05 01:14:10;;;;;;;12.52;8.98;;;;;;;9.04;100.00;92758.50;2106604;28;20020;-84
2021/10/05 01:15:11;;;;;;;10.00;8.98;;;;;;;9.07;100.00;92758.41;2106562;28;20027;-86
2021/10/05 01:16:20;;;;;;;10.05;8.95;;;;;;;9.09;100.00;92747.34;2098320;28;20086;-82
2021/10/05 01:17:21;;;;;;;10.07;8.50;;;;;;;9.05;100.00;92744.00;2108767;27;20106;-84
2021/10/05 01:18:22;;;;;;;9.75;8.43;;;;;;;9.02;100.00;92748.25;2114952;28;20016;-86
2021/10/05 01:19:23;;;;;;;10.32;9.23;;;;;;;9.00;100.00;92742.59;2106450;28;20024;-83
2021/10/05 01:20:25;;;;;;;9.88;8.85;;;;;;;9.06;100.00;92740.94;2106855;28;20404;-85
2021/10/05 01:21:26;;;;;;;11.35;9.00;;;;;;;9.02;100.00;92742.91;2115232;28;20452;-82
2021/10/05 01:22:26;;;;;;;9.93;8.82;;;;;;;8.99;100.00;92751.72;2123249;27;20050;-85
2021/10/05 01:23:29;;;;;;;15.05;8.20;;;;;;;9.06;100.00;92740.19;2114995;28;20117;-85
2021/10/05 01:24:30;;;;;;;16.20;8.68;;;;;;;9.08;100.00;92751.91;2115312;28;20047;-85
2021/10/05 01:25:31;;;;;;;12.40;8.98;;;;;;;9.07;100.00;92753.09;2114786;28;20476;-85
2021/10/05 01:26:32;;;;;;;10.70;9.52;;;;;;;9.03;100.00;92746.31;2104570;28;20099;-84
2021/10/05 01:28:00;;;;;;;9.70;8.55;;;;;;;8.98;100.00;92742.25;2106459;28;20032;-84
2021/10/05 01:29:02;;;;;;;10.63;8.43;;;;;;;8.97;100.00;92746.06;2103644;28;20045;-84
2021/10/05 01:30:04;;;;;;;9.88;8.88;;;;;;;8.93;100.00;92742.75;2114853;28;20118;-85
2021/10/05 01:31:05;;;;;;;9.25;8.35;;;;;;;9.00;100.00;92739.94;2114981;28;20083;-84
2021/10/05 01:32:06;;;;;;;10.20;9.20;;;;;;;9.01;100.00;92744.09;2106345;28;20139;-84
2021/10/05 01:33:07;;;;;;;10.48;8.50;;;;;;;9.03;100.00;92744.41;2106373;28;20552;-82
2021/10/05 01:34:08;;;;;;;9.85;8.60;;;;;;;9.10;100.00;92754.19;2089796;28;20021;-84
2021/10/05 01:35:10;;;;;;;9.48;8.48;;;;;;;9.12;100.00;92753.75;2106517;28;20035;-84
2021/10/05 01:36:11;;;;;;;8.98;8.07;;;;;;;9.09;100.00;92744.69;2106534;28;20055;-83
2021/10/05 01:37:12;;;;;;;10.50;7.97;;;;;;;9.17;100.00;92746.00;2106634;28;20016;-84
2021/10/05 01:38:13;;;;;;;9.27;8.38;;;;;;;9.07;100.00;92753.09;2106278;28;20481;-82
2021/10/05 01:39:35;;;;;;;8.98;8.07;;;;;;;9.04;100.00;92747.81;2106342;28;20031;-83
2021/10/05 01:40:36;;;;;;;8.70;7.88;;;;;;;9.15;100.00;92743.03;2104923;28;20392;-83
2021/10/05 01:41:37;;;;;;;9.05;8.10;;;;;;;9.16;100.00;92738.44;2098096;28;20035;-82
2021/10/05 01:42:38;;;;;;;9.10;8.05;;;;;;;9.14;100.00;92738.13;2105194;28;20067;-86
2021/10/05 01:43:39;;;;;;;9.50;7.47;;;;;;;9.10;100.00;92737.44;2098034;28;20400;-83
2021/10/05 01:44:41;;;;;;;9.40;8.35;;;;;;;9.05;100.00;92728.75;2114923;28;20026;-85
2021/10/05 01:45:43;;;;;;;9.50;8.45;;;;;;;9.09;100.00;92726.03;2106240;28;20073;-83
2021/10/05 01:46:43;;;;;;;9.68;8.68;;;;;;;9.06;100.00;92722.25;2098122;28;20033;-82
2021/10/05 01:47:44;;;;;;;11.02;8.30;;;;;;;9.03;100.00;92725.75;2106401;28;20047;-83
2021/10/05 01:48:45;;;;;;;9.40;7.78;;;;;;;9.02;100.00;92718.19;2106339;28;20028;-83
2021/10/05 01:49:46;;;;;;;10.15;8.63;;;;;;;9.04;100.00;92721.94;2106409;28;20060;-82
2021/10/05 01:50:47;;;;;;;11.07;9.00;;;;;;;8.94;100.00;92730.91;2114755;28;20051;-84
2021/10/05 01:51:50;;;;;;;15.30;9.27;;;;;;;8.95;100.00;92729.72;2106420;28;20099;-83
2021/10/05 01:52:51;;;;;;;10.23;8.60;;;;;;;8.98;100.00;92722.84;2114758;28;20380;-83
2021/10/05 01:53:52;;;;;;;11.77;8.88;;;;;;;8.96;100.00;92730.50;2115274;28;20023;-82
2021/10/05 01:54:53;;;;;;;12.10;8.95;;;;;;;8.92;100.00;92719.91;2115713;28;20019;-82
2021/10/05 01:55:53;;;;;;;8.98;8.02;;;;;;;8.99;100.00;92725.06;2107244;28;20031;-83
2021/10/05 01:56:54;;;;;;;10.60;8.63;;;;;;;8.91;100.00;92722.97;2106364;28;20066;-83
2021/10/05 01:57:56;;;;;;;10.38;8.63;;;;;;;8.91;100.00;92718.44;2106254;28;20472;-84
2021/10/05 01:58:56;;;;;;;11.75;8.30;;;;;;;8.91;100.00;92715.75;2114319;28;20499;-82
2021/10/05 01:59:57;;;;;;;9.75;8.75;;;;;;;8.95;100.00;92713.00;2097868;28;20044;-83
2021/10/05 02:00:59;;;;;;;9.95;8.60;;;;;;;8.90;100.00;92710.81;2097900;28;20021;-84
2021/10/05 02:02:00;;;;;;;10.52;8.73;;;;;;;8.88;100.00;92710.50;2106230;28;20020;-83
2021/10/05 02:03:01;;;;;;;9.57;8.50;;;;;;;8.83;100.00;92701.09;2114691;28;20023;-82
2021/10/05 02:04:05;;;;;;;14.93;8.65;;;;;;;8.84;100.00;92715.91;2106271;28;20024;-83
2021/10/05 02:05:07;;;;;;;9.90;8.50;;;;;;;8.84;100.00;92710.56;2098464;28;20070;-82
2021/10/05 02:07:45;;;;;;;;;;;;;;;8.90;100.00;92710.81;2149126;27;20121;-83
2021/10/05 02:08:46;;;;;;;8.98;8.07;;;;;;;8.86;100.00;92712.81;2130653;27;19934;-83
2021/10/05 02:09:49;;;;;;;8.57;7.38;;;;;;;8.82;100.00;92710.22;2121634;27;20471;-82
2021/10/05 02:10:50;;;;;;;10.68;7.82;;;;;;;8.83;100.00;92707.16;2126374;27;20467;-82
2021/10/05 02:11:51;;;;;;;11.73;8.20;;;;;;;8.85;100.00;92706.75;2130658;27;20018;-84
2021/10/05 02:12:52;;;;;;;11.55;8.73;;;;;;;8.83;100.00;92706.41;2139383;27;20030;-84
2021/10/05 02:13:53;;;;;;;10.35;8.50;;;;;;;8.83;100.00;92699.16;2139149;27;20560;-82
2021/10/05 02:14:55;;;;;;;12.10;8.27;;;;;;;8.82;100.00;92702.22;2122020;28;20070;-83
2021/10/05 02:15:56;;;;;;;10.68;8.10;;;;;;;8.82;100.00;92699.56;2122227;27;20495;-83
2021/10/05 02:16:57;;;;;;;11.70;8.77;;;;;;;8.79;100.00;92695.09;2113506;28;20015;-82
2021/10/05 02:17:58;;;;;;;9.68;8.40;;;;;;;8.77;100.00;92702.72;2113463;28;20167;-83
2021/10/05 02:19:00;;;;;;;19.20;8.73;;;;;;;8.71;100.00;92699.81;2120183;28;20464;-83
2021/10/05 02:20:02;;;;;;;10.05;7.97;;;;;;;8.71;100.00;92701.72;2122176;27;20459;-83
2021/10/05 02:21:03;;;;;;;9.85;8.85;;;;;;;8.70;100.00;92698.31;2121976;27;20034;-82
2021/10/05 02:22:05;;;;;;;10.18;8.73;;;;;;;8.76;100.00;92698.56;2121947;28;20102;-81
2021/10/05 02:23:07;;;;;;;9.55;7.97;;;;;;;8.77;100.00;92689.41;2113540;28;20026;-83
2021/10/05 02:25:21;;;;;;;11.23;7.90;;;;;;;8.80;100.00;92691.25;2132430;27;20022;-83
2021/10/05 02:26:22;;;;;;;9.38;7.90;;;;;;;8.80;100.00;92691.25;2123070;27;20035;-84
2021/10/05 02:27:23;;;;;;;11.00;7.70;;;;;;;8.76;100.00;92688.66;2105125;28;20035;-81
2021/10/05 02:28:23;;;;;;;9.70;7.78;;;;;;;8.74;100.00;92679.59;2121630;27;20016;-83
2021/10/05 02:29:25;;;;;;;8.98;7.55;;;;;;;8.75;100.00;92673.09;2121889;28;20026;-82
2021/10/05 02:30:25;;;;;;;8.82;7.93;;;;;;;8.70;100.00;92678.91;2113539;27;20073;-82
2021/10/05 02:31:29;;;;;;;11.20;8.23;;;;;;;8.70;100.00;92679.66;2113330;28;20077;-83
2021/10/05 02:32:29;;;;;;;13.38;8.55;;;;;;;8.69;100.00;92680.84;2122098;27;20027;-82
2021/10/05 02:33:31;;;;;;;9.27;7.63;;;;;;;8.68;100.00;92673.22;2130450;27;20491;-84
2021/10/05 02:34:32;;;;;;;17.45;8.38;;;;;;;8.65;100.00;92674.06;2139634;27;20477;-83
2021/10/05 02:35:33;;;;;;;8.88;7.97;;;;;;;8.67;100.00;92672.50;2130204;27;20487;-81
2021/10/05 02:36:34;;;;;;;10.30;8.25;;;;;;;8.65;100.00;92674.06;2121870;27;20027;-83
2021/10/05 02:37:36;;;;;;;10.43;7.55;;;;;;;8.67;100.00;92664.50;2113332;28;20026;-82
2021/10/05 02:38:37;;;;;;;9.32;7.65;;;;;;;8.69;100.00;92666.72;2105148;28;20075;-81
2021/10/05 02:39:38;;;;;;;8.18;7.35;;;;;;;8.73;100.00;92662.06;2113393;28;20016;-83
2021/10/05 02:40:39;;;;;;;9.18;8.15;;;;;;;8.69;100.00;92659.50;2121755;27;20015;-83
2021/10/05 02:41:40;;;;;;;11.05;8.00;;;;;;;8.74;100.00;92660.94;2113281;28;20023;-82
2021/10/05 02:42:41;;;;;;;9.23;7.78;;;;;;;8.74;100.00;92661.69;2113287;27;20096;-81
2021/10/05 02:43:42;;;;;;;12.27;8.60;;;;;;;8.70;100.00;92670.91;2121673;27;20556;-81
2021/10/05 02:44:43;;;;;;;11.52;7.95;;;;;;;8.68;100.00;92670.56;2121803;28;20084;-84
2021/10/05 02:45:44;;;;;;;8.77;7.75;;;;;;;8.64;100.00;92672.56;2121825;27;20016;-84
2021/10/05 02:46:46;;;;;;;9.75;8.75;;;;;;;8.69;100.00;92680.84;2130337;27;20015;-82
2021/10/05 02:47:47;;;;;;;17.73;7.78;;;;;;;8.69;100.00;92680.84;2130321;27;20113;-83
2021/10/05 02:48:48;;;;;;;9.55;7.20;;;;;;;8.74;100.00;92688.31;2122003;27;20016;-82
2021/10/05 02:49:50;;;;;;;8.32;7.18;;;;;;;8.70;100.00;92682.31;2130980;27;20022;-84
2021/10/05 02:50:51;;;;;;;9.73;8.13;;;;;;;8.73;100.00;92686.81;2132330;27;20483;-82
2021/10/05 02:51:52;;;;;;;9.05;7.90;;;;;;;8.75;100.00;92687.16;2132079;27;20027;-80
2021/10/05 02:52:53;;;;;;;9.98;7.38;;;;;;;8.77;100.00;92684.06;2130402;27;20022;-81
2021/10/05 02:53:53;;;;;;;9.52;8.02;;;;;;;8.82;100.00;92680.91;2121680;28;20547;-81
2021/10/05 02:54:55;;;;;;;8.85;7.80;;;;;;;8.83;100.00;92690.44;2121817;27;20038;-83
2021/10/05 02:55:56;;;;;;;11.50;7.22;;;;;;;8.78;100.00;92686.34;2122036;27;20030;-82
2021/10/05 02:56:56;;;;;;;9.93;7.30;;;;;;;8.80;100.00;92676.00;2113364;28;20479;-81
2021/10/05 02:57:57;;;;;;;9.93;7.80;;;;;;;8.86;100.00;92683.50;2121695;27;20026;-83
2021/10/05 02:58:58;;;;;;;15.98;8.07;;;;;;;8.82;100.00;92691.56;2121755;27;20019;-84
2021/10/05 02:59:59;;;;;;;9.05;7.50;;;;;;;8.83;100.00;92683.19;2113255;28;20024;-82
2021/10/05 03:01:00;;;;;;;9.15;7.28;;;;;;;8.90;100.00;92684.16;2121814;27;20046;-82
2021/10/05 03:02:01;;;;;;;10.93;6.95;;;;;;;8.88;100.00;92695.25;2130073;27;20080;-84
2021/10/05 03:03:02;;;;;;;9.68;7.43;;;;;;;8.92;100.00;92679.19;2113103;28;20023;-83
2021/10/05 03:04:04;;;;;;;9.40;7.45;;;;;;;8.83;100.00;92677.84;2121780;27;20515;-81
2021/10/05 03:05:05;;;;;;;7.53;6.75;;;;;;;8.89;100.00;92677.34;2130338;27;20034;-82
2021/10/05 03:06:06;;;;;;;10.52;8.25;;;;;;;8.78;100.00;92669.56;2130287;27;20087;-83
2021/10/05 03:07:08;;;;;;;10.60;7.43;;;;;;;8.81;100.00;92676.75;2121262;28;20085;-83
2021/10/05 03:08:08;;;;;;;7.72;6.93;;;;;;;8.85;100.00;92671.34;2104782;28;20484;-85
2021/10/05 03:09:09;;;;;;;12.75;7.00;;;;;;;8.83;100.00;92663.78;2113120;27;20020;-83
2021/10/05 03:10:10;;;;;;;8.57;7.63;;;;;;;8.86;100.00;92670.91;2130156;27;20087;-82
2021/10/05 03:11:12;;;;;;;9.32;7.15;;;;;;;8.80;100.00;92672.59;2130253;27;20041;-83
2021/10/05 03:12:13;;;;;;;8.13;7.30;;;;;;;8.79;100.00;92665.75;2113212;28;20483;-82
2021/10/05 03:13:13;;;;;;;7.55;6.80;;;;;;;8.74;100.00;92660.94;2113091;28;20057;-83
2021/10/05 03:14:15;;;;;;;8.93;7.53;;;;;;;8.68;100.00;92666.00;2121678;27;20111;-83
2021/10/05 03:15:16;;;;;;;9.50;7.25;;;;;;;8.69;100.00;92662.19;2121569;27;20031;-83
2021/10/05 03:16:17;;;;;;;9.57;7.75;;;;;;;8.72;100.00;92672.00;2130121;27;20105;-82
2021/10/05 03:17:20;;;;;;;11.43;7.45;;;;;;;8.73;100.00;92662.06;2121438;28;20434;-82
2021/10/05 03:18:21;;;;;;;7.75;6.82;;;;;;;8.73;100.00;92659.41;2112913;28;20107;-84
2021/10/05 03:19:22;;;;;;;9.38;7.78;;;;;;;8.74;100.00;92653.69;2106879;28;20019;-82
2021/10/05 03:20:23;;;;;;;8.55;7.18;;;;;;;8.80;100.00;92654.69;2107441;28;20031;-81
2021/10/05 03:21:24;;;;;;;7.85;7.03;;;;;;;8.78;100.00;92654.34;2115953;28;20023;-83
2021/10/05 03:22:25;;;;;;;8.35;7.20;;;;;;;8.81;100.00;92656.19;2107435;28;20022;-83
2021/10/05 03:23:26;;;;;;;8.93;7.47;;;;;;;8.76;100.00;92659.34;2115997;28;20015;-83
2021/10/05 03:24:27;;;;;;;8.32;6.55;;;;;;;8.78;100.00;92664.25;2124275;27;20076;-82
2021/10/05 03:25:28;;;;;;;13.15;7.75;;;;;;;8.77;100.00;92668.09;2107249;28;20019;-82
2021/10/05 03:26:29;;;;;;;10.60;7.72;;;;;;;8.76;100.00;92670.00;2106803;28;20054;-83
2021/10/05 03:27:31;;;;;;;9.43;7.15;;;;;;;8.83;100.00;92674.44;2115840;27;20537;-82
2021/10/05 03:28:32;;;;;;;11.70;6.93;;;;;;;8.76;100.00;92674.59;2124455;27;20075;-83
2021/10/05 03:29:33;;;;;;;7.80;6.88;;;;;;;8.81;100.00;92666.09;2124251;27;20433;-79
2021/10/05 03:30:34;;;;;;;11.90;7.35;;;;;;;8.73;100.00;92672.75;2132855;27;20022;-82
2021/10/05 03:31:35;;;;;;;9.68;6.47;;;;;;;8.73;100.00;92668.16;2124186;27;20019;-82
2021/10/05 03:32:36;;;;;;;7.70;6.60;;;;;;;8.78;100.00;92673.00;2124202;27;20023;-83
2021/10/05 03:33:41;;;;;;;10.32;6.60;;;;;;;8.80;100.00;92673.34;2133017;27;20023;-81
2021/10/05 03:34:42;;;;;;;7.90;6.28;;;;;;;8.93;100.00;92667.34;2116260;27;20476;-82
2021/10/05 03:35:43;;;;;;;8.80;6.85;;;;;;;8.98;100.00;92669.53;2115789;28;20102;-81
2021/10/05 03:36:44;;;;;;;8.15;7.20;;;;;;;8.98;100.00;92669.53;2124276;27;20026;-81
2021/10/05 03:37:45;;;;;;;7.18;6.38;;;;;;;8.95;100.00;92667.69;2132788;27;20533;-82
2021/10/05 03:38:46;;;;;;;9.30;6.20;;;;;;;9.04;100.00;92667.84;2132814;27;20023;-82
2021/10/05 03:39:47;;;;;;;8.98;6.60;;;;;;;8.97;100.00;92665.38;2124148;27;20027;-82
2021/10/05 03:40:49;;;;;;;7.22;5.93;;;;;;;9.07;100.00;92661.69;2124071;27;20046;-79
2021/10/05 03:41:50;;;;;;;7.78;6.25;;;;;;;9.10;100.00;92665.44;2116145;27;20023;-81
2021/10/05 03:42:51;;;;;;;7.20;6.05;;;;;;;9.00;100.00;92661.84;2132740;27;20021;-81
2021/10/05 03:43:51;;;;;;;9.70;6.32;;;;;;;8.93;100.00;92665.44;2124143;27;20414;-82
2021/10/05 03:44:52;;;;;;;12.27;6.97;;;;;;;8.91;100.00;92664.34;2115724;28;20022;-80
2021/10/05 03:45:53;;;;;;;9.38;6.60;;;;;;;8.87;100.00;92661.00;2115608;27;20015;-82
2021/10/05 03:46:54;;;;;;;8.02;5.63;;;;;;;8.83;100.00;92658.44;2115478;28;20019;-80
2021/10/05 03:47:55;;;;;;;7.43;6.30;;;;;;;8.80;100.00;92651.28;2132739;27;20018;-80
2021/10/05 03:48:56;;;;;;;7.65;6.03;;;;;;;8.82;100.00;92663.03;2132739;27;20027;-81
2021/10/05 03:49:57;;;;;;;6.13;5.43;;;;;;;8.79;100.00;92655.09;2124138;27;20463;-80
2021/10/05 03:50:58;;;;;;;7.97;6.22;;;;;;;8.94;100.00;92653.59;2128072;27;20392;-80
2021/10/05 03:51:59;;;;;;;7.28;6.20;;;;;;;8.92;100.00;92655.94;2117984;27;20024;-81
2021/10/05 03:53:00;;;;;;;7.00;6.10;;;;;;;8.94;100.00;92661.59;2115653;28;20020;-80
2021/10/05 03:54:01;;;;;;;7.05;5.70;;;;;;;8.94;100.00;92669.59;2115589;28;20464;-81
2021/10/05 03:55:03;;;;;;;6.03;5.43;;;;;;;8.93;100.00;92664.69;2115446;28;20020;-82
2021/10/05 03:56:04;;;;;;;5.68;5.10;;;;;;;8.90;100.00;92660.94;2120712;27;20019;-81
2021/10/05 03:57:05;;;;;;;6.35;5.57;;;;;;;9.07;100.00;92659.03;2132618;27;20118;-80
2021/10/05 03:58:06;;;;;;;5.70;5.03;;;;;;;9.05;100.00;92656.03;2124124;27;20491;-83
2021/10/05 03:59:07;;;;;;;5.50;4.90;;;;;;;8.97;100.00;92658.13;2132540;27;20053;-81
2021/10/05 04:00:09;;;;;;;6.22;5.63;;;;;;;8.88;100.00;92644.63;2133364;27;20029;-82
2021/10/05 04:01:10;;;;;;;5.43;4.93;;;;;;;9.03;100.00;92651.09;2132539;27;20023;-80
2021/10/05 04:02:10;;;;;;;7.10;5.25;;;;;;;8.95;100.00;92643.69;2123900;27;20023;-81
2021/10/05 04:03:11;;;;;;;5.50;4.32;;;;;;;8.90;100.00;92647.59;2132505;27;20026;-81
2021/10/05 04:04:13;;;;;;;4.95;4.45;;;;;;;8.88;100.00;92639.28;2133247;27;20045;-82
2021/10/05 04:05:14;;;;;;;4.88;4.43;;;;;;;8.86;100.00;92640.84;2123879;27;20525;-80
2021/10/05 04:06:15;;;;;;;5.13;4.63;;;;;;;8.83;100.00;92640.53;2124116;27;20075;-81
2021/10/05 04:07:16;;;;;;;4.38;3.97;;;;;;;8.87;100.00;92647.69;2132287;27;20039;-80
2021/10/05 04:08:17;;;;;;;5.75;4.05;;;;;;;8.86;100.00;92646.19;2115032;28;20082;-82
2021/10/05 04:09:19;;;;;;;4.00;3.70;;;;;;;8.83;100.00;92645.88;2111187;27;20058;-81
2021/10/05 04:10:20;;;;;;;5.68;4.68;;;;;;;8.85;100.00;92640.13;2115415;27;20019;-83
2021/10/05 04:11:21;;;;;;;13.48;5.20;;;;;;;8.85;100.00;92640.13;2107290;28;20031;-80
2021/10/05 04:12:22;;;;;;;6.00;4.63;;;;;;;8.79;100.00;92634.53;2107417;28;20089;-81
2021/10/05 04:13:23;;;;;;;4.63;4.10;;;;;;;8.77;100.00;92644.84;2115533;27;20023;-82
2021/10/05 04:14:24;;;;;;;10.73;4.53;;;;;;;8.82;100.00;92643.59;2115533;28;20027;-83
2021/10/05 04:15:24;;;;;;;4.45;4.00;;;;;;;8.89;100.00;92650.69;2123931;27;20460;-81
2021/10/05 04:16:25;;;;;;;6.97;3.97;;;;;;;8.88;100.00;92652.63;2115742;28;20024;-81
2021/10/05 04:17:26;;;;;;;5.32;4.82;;;;;;;8.88;100.00;92651.88;2124349;27;20015;-81
2021/10/05 04:18:27;;;;;;;5.30;4.18;;;;;;;8.85;100.00;92656.09;2115423;28;20027;-83
2021/10/05 04:19:28;;;;;;;6.75;4.15;;;;;;;8.86;100.00;92646.94;2107269;28;20024;-81
2021/10/05 04:20:29;;;;;;;4.72;3.88;;;;;;;8.88;100.00;92649.94;2115844;28;20384;-82
2021/10/05 04:21:30;;;;;;;4.78;4.32;;;;;;;8.78;100.00;92651.69;2115847;27;20110;-82
2021/10/05 04:22:31;;;;;;;4.07;3.78;;;;;;;8.82;100.00;92651.59;2124104;27;20806;-81
2021/10/05 04:23:33;;;;;;;4.18;3.80;;;;;;;8.85;100.00;92656.09;2124109;27;20030;-82
2021/10/05 04:24:33;;;;;;;7.70;4.10;;;;;;;8.86;100.00;92649.59;2124425;27;20030;-81
2021/10/05 04:25:34;;;;;;;5.65;3.58;;;;;;;8.87;100.00;92656.44;2115481;28;20110;-80
2021/10/05 04:26:36;;;;;;;3.95;3.55;;;;;;;8.88;100.00;92649.19;2116308;27;20047;-81
2021/10/05 04:27:38;;;;;;;4.15;3.75;;;;;;;8.80;100.00;92654.69;2123879;27;20031;-80
2021/10/05 04:28:39;;;;;;;5.05;4.28;;;;;;;8.81;100.00;92652.75;2124197;27;20030;-82
2021/10/05 04:29:40;;;;;;;4.38;3.97;;;;;;;8.97;100.00;92652.03;2128642;27;20031;-82
2021/10/05 04:30:42;;;;;;;4.10;3.45;;;;;;;8.98;100.00;92654.28;2123016;27;20019;-82
2021/10/05 04:31:42;;;;;;;8.63;3.30;;;;;;;8.96;100.00;92653.22;2107160;28;20786;-81
2021/10/05 04:32:43;;;;;;;6.82;3.10;;;;;;;8.91;100.00;92643.78;2115428;28;20066;-82
2021/10/05 04:33:44;;;;;;;3.45;3.15;;;;;;;8.98;100.00;92650.88;2115518;28;20019;-82
2021/10/05 04:34:47;;;;;;;3.70;3.40;;;;;;;9.03;100.00;92640.44;2115348;28;20019;-79
2021/10/05 04:35:48;;;;;;;3.47;3.17;;;;;;;9.01;100.00;92639.38;2107600;28;20591;-81
2021/10/05 04:36:49;;;;;;;3.17;2.90;;;;;;;8.89;100.00;92646.13;2107728;28;20067;-81
2021/10/05 04:37:50;;;;;;;3.90;3.60;;;;;;;8.94;100.00;92639.53;2123903;27;20434;-79
2021/10/05 04:38:51;;;;;;;3.35;3.05;;;;;;;8.97;100.00;92642.13;2115566;28;20110;-80
2021/10/05 04:39:51;;;;;;;3.75;3.28;;;;;;;9.05;100.00;92640.03;2115353;28;20020;-79
2021/10/05 04:40:52;;;;;;;4.45;3.20;;;;;;;8.97;100.00;92636.03;2128899;27;20029;-81
2021/10/05 04:41:53;;;;;;;3.53;3.20;;;;;;;8.97;100.00;92639.44;2115302;28;20023;-81
2021/10/05 04:42:54;;;;;;;3.45;3.17;;;;;;;8.89;100.00;92638.13;2116354;28;20043;-80
2021/10/05 04:43:55;;;;;;;3.75;3.40;;;;;;;8.88;100.00;92643.88;2124513;27;20022;-82
2021/10/05 04:44:57;;;;;;;4.57;4.10;;;;;;;8.82;100.00;92646.25;2124137;27;20499;-82
2021/10/05 04:45:58;;;;;;;4.25;3.80;;;;;;;8.79;100.00;92647.13;2115948;28;20465;-81
2021/10/05 04:46:59;;;;;;;3.83;3.53;;;;;;;8.89;100.00;92646.13;2124051;27;20019;-81
2021/10/05 04:48:05;;;;;;;6.60;3.95;;;;;;;8.84;100.00;92643.94;2124908;27;20378;-80
2021/10/05 04:49:06;;;;;;;4.47;4.07;;;;;;;8.89;100.00;92640.78;2123860;27;20107;-80
2021/10/05 04:50:09;;;;;;;4.68;4.22;;;;;;;8.84;100.00;92641.28;2121132;27;20069;-82